sensor_id;sensor_type;location;lat;lon;timestamp;P1;durP1;ratioP1;P2;durP2;ratioP2
16854;SDS011;8543;54.522;18.550;2023-03-14T00:02:05;7.90;;;4.90;;
16854;SDS011;8543;54.522;18.550;2023-03-14T00:04:30;7.10;;;4.90;;
16854;SDS011;8543;54.522;18.550;2023-03-14T00:06:56;6.80;;;4.30;;
16854;SDS011;8543;54.522;18.550;2023-03-14T00:09:21;7.80;;;5.00;;
16854;SDS011;8543;54.522;18.550;2023-03-14T00:11:47;6.90;;;5.10;;
16854;SDS011;8543;54.522;18.550;2023-03-14T00:14:12;7.90;;;5.10;;
16854;SDS011;8543;54.522;18.550;2023-03-14T00:16:38;8.60;;;4.80;;
16854;SDS011;8543;54.522;18.550;2023-03-14T00:19:03;6.50;;;4.60;;
16854;SDS011;8543;54.522;18.550;2023-03-14T00:21:28;6.60;;;4.40;;
16854;SDS011;8543;54.522;18.550;2023-03-14T00:23:54;8.40;;;4.70;;
16854;SDS011;8543;54.522;18.550;2023-03-14T00:26:20;7.10;;;5.00;;
16854;SDS011;8543;54.522;18.550;2023-03-14T00:28:46;7.10;;;4.70;;
16854;SDS011;8543;54.522;18.550;2023-03-14T00:31:13;6.70;;;4.00;;
16854;SDS011;8543;54.522;18.550;2023-03-14T00:33:40;6.40;;;4.50;;
16854;SDS011;8543;54.522;18.550;2023-03-14T00:36:07;7.50;;;4.60;;
16854;SDS011;8543;54.522;18.550;2023-03-14T00:38:34;7.00;;;4.60;;
16854;SDS011;8543;54.522;18.550;2023-03-14T00:41:04;7.10;;;4.50;;
16854;SDS011;8543;54.522;18.550;2023-03-14T00:43:30;6.70;;;4.70;;
16854;SDS011;8543;54.522;18.550;2023-03-14T00:45:56;8.10;;;5.20;;
16854;SDS011;8543;54.522;18.550;2023-03-14T00:48:22;6.90;;;4.70;;
16854;SDS011;8543;54.522;18.550;2023-03-14T00:50:48;7.20;;;4.60;;
16854;SDS011;8543;54.522;18.550;2023-03-14T00:53:13;7.30;;;4.90;;
16854;SDS011;8543;54.522;18.550;2023-03-14T00:55:39;9.00;;;4.70;;
16854;SDS011;8543;54.522;18.550;2023-03-14T00:58:05;8.20;;;4.60;;
16854;SDS011;8543;54.522;18.550;2023-03-14T01:00:31;6.70;;;4.90;;
16854;SDS011;8543;54.522;18.550;2023-03-14T01:02:57;7.10;;;4.80;;
16854;SDS011;8543;54.522;18.550;2023-03-14T01:05:22;6.70;;;4.10;;
16854;SDS011;8543;54.522;18.550;2023-03-14T01:07:48;7.00;;;4.60;;
16854;SDS011;8543;54.522;18.550;2023-03-14T01:10:14;7.00;;;4.70;;
16854;SDS011;8543;54.522;18.550;2023-03-14T01:12:39;7.70;;;4.40;;
16854;SDS011;8543;54.522;18.550;2023-03-14T01:15:05;7.60;;;4.80;;
16854;SDS011;8543;54.522;18.550;2023-03-14T01:17:31;7.40;;;4.60;;
16854;SDS011;8543;54.522;18.550;2023-03-14T01:19:56;7.80;;;4.50;;
16854;SDS011;8543;54.522;18.550;2023-03-14T01:22:22;7.00;;;4.60;;
16854;SDS011;8543;54.522;18.550;2023-03-14T01:24:47;7.70;;;4.80;;
16854;SDS011;8543;54.522;18.550;2023-03-14T01:27:12;7.80;;;4.40;;
16854;SDS011;8543;54.522;18.550;2023-03-14T01:29:38;7.90;;;4.80;;
16854;SDS011;8543;54.522;18.550;2023-03-14T01:32:03;7.10;;;4.90;;
16854;SDS011;8543;54.522;18.550;2023-03-14T01:34:29;8.20;;;4.90;;
16854;SDS011;8543;54.522;18.550;2023-03-14T01:36:54;6.70;;;5.00;;
16854;SDS011;8543;54.522;18.550;2023-03-14T01:39:20;6.50;;;4.40;;
16854;SDS011;8543;54.522;18.550;2023-03-14T01:41:45;7.70;;;4.70;;
16854;SDS011;8543;54.522;18.550;2023-03-14T01:44:11;7.30;;;4.70;;
16854;SDS011;8543;54.522;18.550;2023-03-14T01:46:43;8.00;;;4.80;;
16854;SDS011;8543;54.522;18.550;2023-03-14T01:52:09;9.80;;;4.80;;
16854;SDS011;8543;54.522;18.550;2023-03-14T01:54:43;6.60;;;4.40;;
16854;SDS011;8543;54.522;18.550;2023-03-14T01:57:13;7.30;;;4.50;;
16854;SDS011;8543;54.522;18.550;2023-03-14T01:59:40;9.10;;;4.90;;
16854;SDS011;8543;54.522;18.550;2023-03-14T02:02:10;5.90;;;4.20;;
16854;SDS011;8543;54.522;18.550;2023-03-14T02:04:37;8.20;;;4.60;;
16854;SDS011;8543;54.522;18.550;2023-03-14T02:09:31;6.30;;;4.20;;
16854;SDS011;8543;54.522;18.550;2023-03-14T02:11:56;6.30;;;4.60;;
16854;SDS011;8543;54.522;18.550;2023-03-14T02:14:28;8.70;;;4.50;;
16854;SDS011;8543;54.522;18.550;2023-03-14T02:16:56;6.50;;;4.10;;
16854;SDS011;8543;54.522;18.550;2023-03-14T02:19:25;7.10;;;4.40;;
16854;SDS011;8543;54.522;18.550;2023-03-14T02:22:05;7.90;;;4.90;;
16854;SDS011;8543;54.522;18.550;2023-03-14T02:24:35;7.10;;;4.20;;
16854;SDS011;8543;54.522;18.550;2023-03-14T02:27:09;7.10;;;4.60;;
16854;SDS011;8543;54.522;18.550;2023-03-14T02:29:38;7.20;;;4.30;;
16854;SDS011;8543;54.522;18.550;2023-03-14T02:32:06;6.30;;;4.30;;
16854;SDS011;8543;54.522;18.550;2023-03-14T02:34:31;6.50;;;4.20;;
16854;SDS011;8543;54.522;18.550;2023-03-14T02:36:58;7.30;;;4.30;;
16854;SDS011;8543;54.522;18.550;2023-03-14T02:39:35;6.80;;;4.50;;
16854;SDS011;8543;54.522;18.550;2023-03-14T02:42:03;8.60;;;4.90;;
16854;SDS011;8543;54.522;18.550;2023-03-14T02:44:29;8.50;;;4.60;;
16854;SDS011;8543;54.522;18.550;2023-03-14T02:46:54;6.70;;;4.20;;
16854;SDS011;8543;54.522;18.550;2023-03-14T02:49:20;6.30;;;4.40;;
16854;SDS011;8543;54.522;18.550;2023-03-14T02:51:45;7.80;;;4.20;;
16854;SDS011;8543;54.522;18.550;2023-03-14T02:54:11;6.70;;;4.20;;
16854;SDS011;8543;54.522;18.550;2023-03-14T02:56:37;7.40;;;4.40;;
16854;SDS011;8543;54.522;18.550;2023-03-14T02:59:02;6.50;;;4.40;;
16854;SDS011;8543;54.522;18.550;2023-03-14T03:01:28;8.00;;;4.70;;
16854;SDS011;8543;54.522;18.550;2023-03-14T03:03:54;7.60;;;4.10;;
16854;SDS011;8543;54.522;18.550;2023-03-14T03:06:19;8.10;;;4.80;;
16854;SDS011;8543;54.522;18.550;2023-03-14T03:08:45;8.30;;;4.90;;
16854;SDS011;8543;54.522;18.550;2023-03-14T03:11:11;7.50;;;4.60;;
16854;SDS011;8543;54.522;18.550;2023-03-14T03:13:36;6.60;;;4.20;;
16854;SDS011;8543;54.522;18.550;2023-03-14T03:16:02;5.70;;;4.20;;
16854;SDS011;8543;54.522;18.550;2023-03-14T03:18:28;7.30;;;4.30;;
16854;SDS011;8543;54.522;18.550;2023-03-14T03:20:53;5.60;;;4.00;;
16854;SDS011;8543;54.522;18.550;2023-03-14T03:23:19;9.70;;;4.60;;
16854;SDS011;8543;54.522;18.550;2023-03-14T03:25:47;6.40;;;4.10;;
16854;SDS011;8543;54.522;18.550;2023-03-14T03:28:14;7.40;;;4.70;;
16854;SDS011;8543;54.522;18.550;2023-03-14T03:30:40;6.50;;;4.10;;
16854;SDS011;8543;54.522;18.550;2023-03-14T03:33:06;6.20;;;4.30;;
16854;SDS011;8543;54.522;18.550;2023-03-14T03:35:32;7.40;;;4.40;;
16854;SDS011;8543;54.522;18.550;2023-03-14T03:37:57;5.50;;;4.20;;
16854;SDS011;8543;54.522;18.550;2023-03-14T03:40:23;7.40;;;4.30;;
16854;SDS011;8543;54.522;18.550;2023-03-14T03:42:48;8.50;;;4.80;;
16854;SDS011;8543;54.522;18.550;2023-03-14T03:45:14;7.50;;;4.20;;
16854;SDS011;8543;54.522;18.550;2023-03-14T03:47:39;6.70;;;4.10;;
16854;SDS011;8543;54.522;18.550;2023-03-14T03:50:05;8.30;;;4.70;;
16854;SDS011;8543;54.522;18.550;2023-03-14T03:52:30;5.90;;;4.00;;
16854;SDS011;8543;54.522;18.550;2023-03-14T03:54:56;5.70;;;3.80;;
16854;SDS011;8543;54.522;18.550;2023-03-14T03:57:21;7.20;;;4.20;;
16854;SDS011;8543;54.522;18.550;2023-03-14T03:59:47;5.80;;;4.10;;
16854;SDS011;8543;54.522;18.550;2023-03-14T04:02:12;6.00;;;4.30;;
16854;SDS011;8543;54.522;18.550;2023-03-14T04:04:38;6.90;;;3.80;;
16854;SDS011;8543;54.522;18.550;2023-03-14T04:07:03;7.90;;;4.30;;
16854;SDS011;8543;54.522;18.550;2023-03-14T04:09:29;6.10;;;4.00;;
16854;SDS011;8543;54.522;18.550;2023-03-14T04:11:55;6.60;;;4.10;;
16854;SDS011;8543;54.522;18.550;2023-03-14T04:14:21;6.00;;;3.80;;
16854;SDS011;8543;54.522;18.550;2023-03-14T04:16:46;6.80;;;4.00;;
16854;SDS011;8543;54.522;18.550;2023-03-14T04:19:12;8.30;;;4.50;;
16854;SDS011;8543;54.522;18.550;2023-03-14T04:21:37;7.20;;;4.00;;
16854;SDS011;8543;54.522;18.550;2023-03-14T04:24:05;6.60;;;4.20;;
16854;SDS011;8543;54.522;18.550;2023-03-14T04:26:31;6.90;;;4.10;;
16854;SDS011;8543;54.522;18.550;2023-03-14T04:28:56;6.90;;;3.80;;
16854;SDS011;8543;54.522;18.550;2023-03-14T04:31:22;6.40;;;3.90;;
16854;SDS011;8543;54.522;18.550;2023-03-14T04:33:47;7.10;;;4.50;;
16854;SDS011;8543;54.522;18.550;2023-03-14T04:36:13;6.20;;;3.90;;
16854;SDS011;8543;54.522;18.550;2023-03-14T04:38:39;7.50;;;4.60;;
16854;SDS011;8543;54.522;18.550;2023-03-14T04:41:05;5.20;;;3.80;;
16854;SDS011;8543;54.522;18.550;2023-03-14T04:43:31;7.30;;;3.90;;
16854;SDS011;8543;54.522;18.550;2023-03-14T04:45:57;6.00;;;3.70;;
16854;SDS011;8543;54.522;18.550;2023-03-14T04:48:23;6.20;;;3.50;;
16854;SDS011;8543;54.522;18.550;2023-03-14T04:50:49;9.70;;;4.30;;
16854;SDS011;8543;54.522;18.550;2023-03-14T04:53:15;6.80;;;3.70;;
16854;SDS011;8543;54.522;18.550;2023-03-14T04:55:41;5.50;;;3.80;;
16854;SDS011;8543;54.522;18.550;2023-03-14T04:58:07;5.80;;;3.90;;
16854;SDS011;8543;54.522;18.550;2023-03-14T05:00:32;5.40;;;3.60;;
16854;SDS011;8543;54.522;18.550;2023-03-14T05:02:58;5.90;;;3.70;;
16854;SDS011;8543;54.522;18.550;2023-03-14T05:05:23;7.00;;;3.70;;
16854;SDS011;8543;54.522;18.550;2023-03-14T05:07:49;8.60;;;3.90;;
16854;SDS011;8543;54.522;18.550;2023-03-14T05:10:15;6.20;;;3.90;;
16854;SDS011;8543;54.522;18.550;2023-03-14T05:12:40;6.10;;;3.60;;
16854;SDS011;8543;54.522;18.550;2023-03-14T05:15:06;5.30;;;3.50;;
16854;SDS011;8543;54.522;18.550;2023-03-14T05:17:32;5.40;;;3.50;;
16854;SDS011;8543;54.522;18.550;2023-03-14T05:19:58;5.70;;;3.50;;
16854;SDS011;8543;54.522;18.550;2023-03-14T05:22:23;5.00;;;3.40;;
16854;SDS011;8543;54.522;18.550;2023-03-14T05:24:49;6.10;;;3.70;;
16854;SDS011;8543;54.522;18.550;2023-03-14T05:27:14;6.10;;;3.40;;
16854;SDS011;8543;54.522;18.550;2023-03-14T05:29:40;6.10;;;3.60;;
16854;SDS011;8543;54.522;18.550;2023-03-14T05:32:05;6.90;;;3.60;;
16854;SDS011;8543;54.522;18.550;2023-03-14T05:34:31;7.30;;;3.50;;
16854;SDS011;8543;54.522;18.550;2023-03-14T05:36:56;5.30;;;3.40;;
16854;SDS011;8543;54.522;18.550;2023-03-14T05:39:22;5.30;;;3.50;;
16854;SDS011;8543;54.522;18.550;2023-03-14T05:41:47;7.60;;;3.60;;
16854;SDS011;8543;54.522;18.550;2023-03-14T05:44:13;6.00;;;3.20;;
16854;SDS011;8543;54.522;18.550;2023-03-14T05:46:38;8.00;;;3.70;;
16854;SDS011;8543;54.522;18.550;2023-03-14T05:49:04;5.40;;;3.50;;
16854;SDS011;8543;54.522;18.550;2023-03-14T05:51:29;5.50;;;3.20;;
16854;SDS011;8543;54.522;18.550;2023-03-14T05:53:54;4.90;;;3.20;;
16854;SDS011;8543;54.522;18.550;2023-03-14T05:56:20;6.00;;;3.40;;
16854;SDS011;8543;54.522;18.550;2023-03-14T05:58:45;4.60;;;3.00;;
16854;SDS011;8543;54.522;18.550;2023-03-14T06:01:11;5.20;;;3.10;;
16854;SDS011;8543;54.522;18.550;2023-03-14T06:03:36;5.00;;;3.30;;
16854;SDS011;8543;54.522;18.550;2023-03-14T06:06:02;5.70;;;3.00;;
16854;SDS011;8543;54.522;18.550;2023-03-14T06:08:27;7.30;;;3.60;;
16854;SDS011;8543;54.522;18.550;2023-03-14T06:10:53;6.70;;;3.20;;
16854;SDS011;8543;54.522;18.550;2023-03-14T06:13:19;5.60;;;3.20;;
16854;SDS011;8543;54.522;18.550;2023-03-14T06:15:45;5.20;;;3.10;;
16854;SDS011;8543;54.522;18.550;2023-03-14T06:18:11;5.10;;;3.40;;
16854;SDS011;8543;54.522;18.550;2023-03-14T06:20:37;5.00;;;3.10;;
16854;SDS011;8543;54.522;18.550;2023-03-14T06:23:04;6.50;;;3.30;;
16854;SDS011;8543;54.522;18.550;2023-03-14T06:25:33;6.10;;;3.40;;
16854;SDS011;8543;54.522;18.550;2023-03-14T06:27:59;6.00;;;3.30;;
16854;SDS011;8543;54.522;18.550;2023-03-14T06:30:25;6.60;;;3.10;;
16854;SDS011;8543;54.522;18.550;2023-03-14T06:32:51;5.70;;;3.20;;
16854;SDS011;8543;54.522;18.550;2023-03-14T06:35:16;5.90;;;3.50;;
16854;SDS011;8543;54.522;18.550;2023-03-14T06:37:42;5.00;;;3.00;;
16854;SDS011;8543;54.522;18.550;2023-03-14T06:50:13;6.60;;;3.30;;
16854;SDS011;8543;54.522;18.550;2023-03-14T06:52:39;5.60;;;3.50;;
16854;SDS011;8543;54.522;18.550;2023-03-14T06:55:11;5.50;;;3.10;;
16854;SDS011;8543;54.522;18.550;2023-03-14T06:57:38;7.80;;;3.60;;
16854;SDS011;8543;54.522;18.550;2023-03-14T07:00:04;4.90;;;3.20;;
16854;SDS011;8543;54.522;18.550;2023-03-14T07:02:30;5.60;;;2.80;;
16854;SDS011;8543;54.522;18.550;2023-03-14T07:04:55;5.30;;;3.10;;
16854;SDS011;8543;54.522;18.550;2023-03-14T07:07:20;6.20;;;3.30;;
16854;SDS011;8543;54.522;18.550;2023-03-14T07:09:46;6.20;;;3.40;;
16854;SDS011;8543;54.522;18.550;2023-03-14T07:12:12;5.50;;;3.60;;
16854;SDS011;8543;54.522;18.550;2023-03-14T07:14:37;5.40;;;3.20;;
16854;SDS011;8543;54.522;18.550;2023-03-14T07:17:02;4.70;;;2.90;;
16854;SDS011;8543;54.522;18.550;2023-03-14T07:19:28;5.60;;;3.10;;
16854;SDS011;8543;54.522;18.550;2023-03-14T07:21:53;7.00;;;2.60;;
16854;SDS011;8543;54.522;18.550;2023-03-14T07:24:19;5.50;;;2.90;;
16854;SDS011;8543;54.522;18.550;2023-03-14T07:26:44;7.10;;;3.10;;
16854;SDS011;8543;54.522;18.550;2023-03-14T07:29:10;5.70;;;3.10;;
16854;SDS011;8543;54.522;18.550;2023-03-14T07:31:35;5.40;;;3.10;;
16854;SDS011;8543;54.522;18.550;2023-03-14T07:34:01;5.90;;;3.20;;
16854;SDS011;8543;54.522;18.550;2023-03-14T07:36:26;4.90;;;3.00;;
16854;SDS011;8543;54.522;18.550;2023-03-14T07:38:51;4.70;;;2.80;;
16854;SDS011;8543;54.522;18.550;2023-03-14T07:41:17;5.40;;;3.10;;
16854;SDS011;8543;54.522;18.550;2023-03-14T07:43:43;5.60;;;3.20;;
16854;SDS011;8543;54.522;18.550;2023-03-14T07:46:08;5.40;;;3.00;;
16854;SDS011;8543;54.522;18.550;2023-03-14T07:48:34;5.70;;;3.20;;
16854;SDS011;8543;54.522;18.550;2023-03-14T07:50:59;5.10;;;3.50;;
16854;SDS011;8543;54.522;18.550;2023-03-14T07:53:25;5.60;;;3.20;;
16854;SDS011;8543;54.522;18.550;2023-03-14T07:55:51;5.80;;;3.00;;
16854;SDS011;8543;54.522;18.550;2023-03-14T07:58:17;5.20;;;3.00;;
16854;SDS011;8543;54.522;18.550;2023-03-14T08:00:43;6.30;;;3.50;;
16854;SDS011;8543;54.522;18.550;2023-03-14T08:03:09;4.70;;;3.10;;
16854;SDS011;8543;54.522;18.550;2023-03-14T08:05:37;5.60;;;3.00;;
16854;SDS011;8543;54.522;18.550;2023-03-14T08:08:03;4.70;;;3.20;;
16854;SDS011;8543;54.522;18.550;2023-03-14T08:10:30;4.70;;;3.10;;
16854;SDS011;8543;54.522;18.550;2023-03-14T08:12:56;6.70;;;3.90;;
16854;SDS011;8543;54.522;18.550;2023-03-14T08:15:23;5.20;;;3.20;;
16854;SDS011;8543;54.522;18.550;2023-03-14T08:17:49;7.10;;;3.70;;
16854;SDS011;8543;54.522;18.550;2023-03-14T08:20:22;5.00;;;3.20;;
16854;SDS011;8543;54.522;18.550;2023-03-14T08:22:50;5.60;;;3.20;;
16854;SDS011;8543;54.522;18.550;2023-03-14T08:25:16;5.80;;;3.10;;
16854;SDS011;8543;54.522;18.550;2023-03-14T08:27:42;6.30;;;3.20;;
16854;SDS011;8543;54.522;18.550;2023-03-14T08:30:13;4.90;;;3.00;;
16854;SDS011;8543;54.522;18.550;2023-03-14T08:32:39;5.70;;;3.20;;
16854;SDS011;8543;54.522;18.550;2023-03-14T08:35:05;7.00;;;3.70;;
16854;SDS011;8543;54.522;18.550;2023-03-14T08:37:32;5.50;;;3.50;;
16854;SDS011;8543;54.522;18.550;2023-03-14T08:39:58;7.90;;;4.00;;
16854;SDS011;8543;54.522;18.550;2023-03-14T08:42:23;5.40;;;3.40;;
16854;SDS011;8543;54.522;18.550;2023-03-14T08:44:50;4.80;;;3.20;;
16854;SDS011;8543;54.522;18.550;2023-03-14T08:47:16;4.70;;;3.20;;
16854;SDS011;8543;54.522;18.550;2023-03-14T08:49:42;5.80;;;3.20;;
16854;SDS011;8543;54.522;18.550;2023-03-14T08:52:07;5.40;;;3.50;;
16854;SDS011;8543;54.522;18.550;2023-03-14T08:54:32;5.30;;;3.20;;
16854;SDS011;8543;54.522;18.550;2023-03-14T08:56:58;4.70;;;3.50;;
16854;SDS011;8543;54.522;18.550;2023-03-14T08:59:23;6.90;;;3.80;;
16854;SDS011;8543;54.522;18.550;2023-03-14T09:01:49;5.50;;;3.80;;
16854;SDS011;8543;54.522;18.550;2023-03-14T09:04:15;5.80;;;3.80;;
16854;SDS011;8543;54.522;18.550;2023-03-14T09:06:40;6.00;;;3.60;;
16854;SDS011;8543;54.522;18.550;2023-03-14T09:09:06;5.60;;;3.50;;
16854;SDS011;8543;54.522;18.550;2023-03-14T09:11:32;6.80;;;3.90;;
16854;SDS011;8543;54.522;18.550;2023-03-14T09:13:57;6.00;;;3.70;;
16854;SDS011;8543;54.522;18.550;2023-03-14T09:16:23;5.40;;;4.00;;
16854;SDS011;8543;54.522;18.550;2023-03-14T09:18:48;5.40;;;3.50;;
16854;SDS011;8543;54.522;18.550;2023-03-14T09:21:14;5.00;;;3.80;;
16854;SDS011;8543;54.522;18.550;2023-03-14T09:23:40;7.70;;;3.80;;
16854;SDS011;8543;54.522;18.550;2023-03-14T09:26:06;6.60;;;3.70;;
16854;SDS011;8543;54.522;18.550;2023-03-14T09:28:32;5.60;;;3.20;;
16854;SDS011;8543;54.522;18.550;2023-03-14T09:30:57;6.20;;;3.80;;
16854;SDS011;8543;54.522;18.550;2023-03-14T09:33:23;5.40;;;3.40;;
16854;SDS011;8543;54.522;18.550;2023-03-14T09:35:49;5.20;;;3.60;;
16854;SDS011;8543;54.522;18.550;2023-03-14T09:38:14;5.80;;;3.50;;
16854;SDS011;8543;54.522;18.550;2023-03-14T09:40:41;6.30;;;3.90;;
16854;SDS011;8543;54.522;18.550;2023-03-14T09:43:09;4.90;;;3.60;;
16854;SDS011;8543;54.522;18.550;2023-03-14T09:45:37;4.90;;;3.80;;
16854;SDS011;8543;54.522;18.550;2023-03-14T09:48:05;5.20;;;3.90;;
16854;SDS011;8543;54.522;18.550;2023-03-14T09:50:38;5.50;;;4.20;;
16854;SDS011;8543;54.522;18.550;2023-03-14T09:53:07;4.30;;;3.50;;
16854;SDS011;8543;54.522;18.550;2023-03-14T09:55:36;6.90;;;3.80;;
16854;SDS011;8543;54.522;18.550;2023-03-14T09:58:03;6.50;;;3.40;;
16854;SDS011;8543;54.522;18.550;2023-03-14T10:00:35;5.20;;;3.80;;
16854;SDS011;8543;54.522;18.550;2023-03-14T10:05:58;5.60;;;3.90;;
16854;SDS011;8543;54.522;18.550;2023-03-14T10:08:24;4.80;;;3.90;;
16854;SDS011;8543;54.522;18.550;2023-03-14T10:10:50;6.50;;;4.00;;
16854;SDS011;8543;54.522;18.550;2023-03-14T10:15:41;5.10;;;3.80;;
16854;SDS011;8543;54.522;18.550;2023-03-14T10:18:13;6.40;;;4.00;;
16854;SDS011;8543;54.522;18.550;2023-03-14T10:20:40;6.20;;;4.00;;
16854;SDS011;8543;54.522;18.550;2023-03-14T10:25:41;5.30;;;3.10;;
16854;SDS011;8543;54.522;18.550;2023-03-14T10:28:22;6.00;;;3.50;;
16854;SDS011;8543;54.522;18.550;2023-03-14T10:30:49;5.90;;;4.00;;
16854;SDS011;8543;54.522;18.550;2023-03-14T10:35:43;7.70;;;3.30;;
16854;SDS011;8543;54.522;18.550;2023-03-14T10:38:16;5.40;;;3.70;;
16854;SDS011;8543;54.522;18.550;2023-03-14T10:40:46;5.00;;;3.70;;
16854;SDS011;8543;54.522;18.550;2023-03-14T10:43:15;7.50;;;3.70;;
16854;SDS011;8543;54.522;18.550;2023-03-14T10:45:44;6.20;;;3.70;;
16854;SDS011;8543;54.522;18.550;2023-03-14T10:48:21;5.00;;;3.70;;
16854;SDS011;8543;54.522;18.550;2023-03-14T10:51:10;6.20;;;3.60;;
16854;SDS011;8543;54.522;18.550;2023-03-14T10:53:39;6.50;;;4.00;;
16854;SDS011;8543;54.522;18.550;2023-03-14T10:56:07;5.20;;;3.90;;
16854;SDS011;8543;54.522;18.550;2023-03-14T10:58:38;5.70;;;3.70;;
16854;SDS011;8543;54.522;18.550;2023-03-14T11:04:10;5.30;;;3.70;;
16854;SDS011;8543;54.522;18.550;2023-03-14T11:07:24;6.40;;;3.80;;
16854;SDS011;8543;54.522;18.550;2023-03-14T11:15:40;5.80;;;3.80;;
16854;SDS011;8543;54.522;18.550;2023-03-14T11:23:55;7.50;;;4.10;;
16854;SDS011;8543;54.522;18.550;2023-03-14T11:29:14;7.30;;;4.10;;
16854;SDS011;8543;54.522;18.550;2023-03-14T11:31:44;6.50;;;4.00;;
16854;SDS011;8543;54.522;18.550;2023-03-14T11:34:15;8.60;;;4.10;;
16854;SDS011;8543;54.522;18.550;2023-03-14T11:37:03;5.80;;;4.20;;
16854;SDS011;8543;54.522;18.550;2023-03-14T11:39:40;5.30;;;3.80;;
16854;SDS011;8543;54.522;18.550;2023-03-14T11:42:10;6.10;;;4.10;;
16854;SDS011;8543;54.522;18.550;2023-03-14T11:44:37;6.00;;;3.70;;
16854;SDS011;8543;54.522;18.550;2023-03-14T11:47:19;5.60;;;3.50;;
16854;SDS011;8543;54.522;18.550;2023-03-14T11:49:53;5.00;;;3.50;;
16854;SDS011;8543;54.522;18.550;2023-03-14T11:52:26;6.50;;;3.30;;
16854;SDS011;8543;54.522;18.550;2023-03-14T11:54:58;5.80;;;3.20;;
16854;SDS011;8543;54.522;18.550;2023-03-14T11:57:42;6.90;;;3.40;;
16854;SDS011;8543;54.522;18.550;2023-03-14T12:08:32;5.90;;;3.30;;
16854;SDS011;8543;54.522;18.550;2023-03-14T12:10:52;5.30;;;3.40;;
16854;SDS011;8543;54.522;18.550;2023-03-14T12:13:24;6.70;;;3.60;;
16854;SDS011;8543;54.522;18.550;2023-03-14T12:15:55;8.50;;;3.50;;
16854;SDS011;8543;54.522;18.550;2023-03-14T12:21:07;6.50;;;3.30;;
16854;SDS011;8543;54.522;18.550;2023-03-14T12:23:34;6.50;;;3.10;;
16854;SDS011;8543;54.522;18.550;2023-03-14T12:26:21;5.20;;;3.00;;
16854;SDS011;8543;54.522;18.550;2023-03-14T12:28:52;5.70;;;3.70;;
16854;SDS011;8543;54.522;18.550;2023-03-14T12:31:46;4.50;;;3.00;;
16854;SDS011;8543;54.522;18.550;2023-03-14T12:34:33;5.40;;;2.90;;
16854;SDS011;8543;54.522;18.550;2023-03-14T12:48:11;5.90;;;3.00;;
16854;SDS011;8543;54.522;18.550;2023-03-14T12:55:47;6.80;;;3.00;;
16854;SDS011;8543;54.522;18.550;2023-03-14T13:01:19;4.30;;;3.10;;
16854;SDS011;8543;54.522;18.550;2023-03-14T13:06:11;5.50;;;3.00;;
16854;SDS011;8543;54.522;18.550;2023-03-14T13:11:22;6.30;;;3.10;;
16854;SDS011;8543;54.522;18.550;2023-03-14T13:13:49;5.90;;;3.00;;
16854;SDS011;8543;54.522;18.550;2023-03-14T13:16:19;6.40;;;3.00;;
16854;SDS011;8543;54.522;18.550;2023-03-14T13:18:46;6.00;;;3.10;;
16854;SDS011;8543;54.522;18.550;2023-03-14T13:21:15;7.00;;;3.20;;
16854;SDS011;8543;54.522;18.550;2023-03-14T13:26:25;6.20;;;2.80;;
16854;SDS011;8543;54.522;18.550;2023-03-14T13:28:59;5.10;;;2.80;;
16854;SDS011;8543;54.522;18.550;2023-03-14T13:31:24;5.00;;;2.70;;
16854;SDS011;8543;54.522;18.550;2023-03-14T13:33:58;5.00;;;2.50;;
16854;SDS011;8543;54.522;18.550;2023-03-14T13:36:24;6.90;;;3.10;;
16854;SDS011;8543;54.522;18.550;2023-03-14T13:38:57;6.00;;;2.90;;
16854;SDS011;8543;54.522;18.550;2023-03-14T13:41:24;6.00;;;2.90;;
16854;SDS011;8543;54.522;18.550;2023-03-14T13:43:50;6.20;;;2.90;;
16854;SDS011;8543;54.522;18.550;2023-03-14T13:46:16;5.20;;;2.60;;
16854;SDS011;8543;54.522;18.550;2023-03-14T13:48:46;5.20;;;2.70;;
16854;SDS011;8543;54.522;18.550;2023-03-14T13:51:13;5.10;;;3.10;;
16854;SDS011;8543;54.522;18.550;2023-03-14T13:53:43;4.80;;;2.70;;
16854;SDS011;8543;54.522;18.550;2023-03-14T13:56:09;8.70;;;3.00;;
16854;SDS011;8543;54.522;18.550;2023-03-14T13:58:36;4.80;;;2.70;;
16854;SDS011;8543;54.522;18.550;2023-03-14T14:03:45;6.80;;;2.90;;
16854;SDS011;8543;54.522;18.550;2023-03-14T14:09:01;7.60;;;2.80;;
16854;SDS011;8543;54.522;18.550;2023-03-14T14:14:03;6.50;;;2.60;;
16854;SDS011;8543;54.522;18.550;2023-03-14T14:16:29;6.80;;;3.10;;
16854;SDS011;8543;54.522;18.550;2023-03-14T14:18:55;4.70;;;2.70;;
16854;SDS011;8543;54.522;18.550;2023-03-14T14:21:21;4.70;;;2.60;;
16854;SDS011;8543;54.522;18.550;2023-03-14T14:23:48;6.10;;;2.90;;
16854;SDS011;8543;54.522;18.550;2023-03-14T14:26:17;5.60;;;2.60;;
16854;SDS011;8543;54.522;18.550;2023-03-14T14:28:44;4.70;;;2.40;;
16854;SDS011;8543;54.522;18.550;2023-03-14T14:33:40;6.30;;;2.50;;
16854;SDS011;8543;54.522;18.550;2023-03-14T14:36:52;6.40;;;2.60;;
16854;SDS011;8543;54.522;18.550;2023-03-14T14:41:47;5.30;;;2.20;;
16854;SDS011;8543;54.522;18.550;2023-03-14T14:44:16;5.20;;;2.40;;
16854;SDS011;8543;54.522;18.550;2023-03-14T14:46:42;5.40;;;2.60;;
16854;SDS011;8543;54.522;18.550;2023-03-14T14:49:16;6.40;;;2.40;;
16854;SDS011;8543;54.522;18.550;2023-03-14T14:51:44;4.60;;;2.60;;
16854;SDS011;8543;54.522;18.550;2023-03-14T14:54:20;6.10;;;2.60;;
16854;SDS011;8543;54.522;18.550;2023-03-14T14:57:22;4.80;;;2.60;;
16854;SDS011;8543;54.522;18.550;2023-03-14T14:59:50;9.00;;;3.10;;
16854;SDS011;8543;54.522;18.550;2023-03-14T15:02:27;5.00;;;2.40;;
16854;SDS011;8543;54.522;18.550;2023-03-14T15:04:59;5.90;;;2.70;;
16854;SDS011;8543;54.522;18.550;2023-03-14T15:07:24;7.30;;;3.00;;
16854;SDS011;8543;54.522;18.550;2023-03-14T15:09:49;7.10;;;2.70;;
16854;SDS011;8543;54.522;18.550;2023-03-14T15:12:15;5.60;;;3.00;;
16854;SDS011;8543;54.522;18.550;2023-03-14T15:14:40;5.70;;;2.80;;
16854;SDS011;8543;54.522;18.550;2023-03-14T15:17:08;8.10;;;2.60;;
16854;SDS011;8543;54.522;18.550;2023-03-14T15:19:36;6.90;;;2.70;;
16854;SDS011;8543;54.522;18.550;2023-03-14T15:22:01;6.30;;;2.80;;
16854;SDS011;8543;54.522;18.550;2023-03-14T15:24:26;6.20;;;2.60;;
16854;SDS011;8543;54.522;18.550;2023-03-14T15:26:52;4.70;;;2.40;;
16854;SDS011;8543;54.522;18.550;2023-03-14T15:29:17;4.70;;;2.30;;
16854;SDS011;8543;54.522;18.550;2023-03-14T15:31:43;3.30;;;2.20;;
16854;SDS011;8543;54.522;18.550;2023-03-14T15:34:09;5.50;;;3.10;;
16854;SDS011;8543;54.522;18.550;2023-03-14T15:36:35;5.20;;;2.40;;
16854;SDS011;8543;54.522;18.550;2023-03-14T15:39:01;5.50;;;2.40;;
16854;SDS011;8543;54.522;18.550;2023-03-14T15:41:28;5.90;;;2.70;;
16854;SDS011;8543;54.522;18.550;2023-03-14T15:43:54;5.60;;;2.80;;
16854;SDS011;8543;54.522;18.550;2023-03-14T15:46:20;5.20;;;2.40;;
16854;SDS011;8543;54.522;18.550;2023-03-14T15:48:46;5.80;;;2.70;;
16854;SDS011;8543;54.522;18.550;2023-03-14T15:51:13;6.30;;;2.90;;
16854;SDS011;8543;54.522;18.550;2023-03-14T15:53:38;7.10;;;2.80;;
16854;SDS011;8543;54.522;18.550;2023-03-14T15:56:04;6.10;;;2.90;;
16854;SDS011;8543;54.522;18.550;2023-03-14T15:58:30;6.10;;;3.00;;
16854;SDS011;8543;54.522;18.550;2023-03-14T16:00:59;6.10;;;3.10;;
16854;SDS011;8543;54.522;18.550;2023-03-14T16:03:26;7.40;;;2.90;;
16854;SDS011;8543;54.522;18.550;2023-03-14T16:05:52;6.40;;;3.40;;
16854;SDS011;8543;54.522;18.550;2023-03-14T16:08:18;8.00;;;3.00;;
16854;SDS011;8543;54.522;18.550;2023-03-14T16:10:44;7.00;;;2.70;;
16854;SDS011;8543;54.522;18.550;2023-03-14T16:13:10;5.10;;;2.30;;
16854;SDS011;8543;54.522;18.550;2023-03-14T16:15:36;5.10;;;2.50;;
16854;SDS011;8543;54.522;18.550;2023-03-14T16:18:01;5.10;;;2.60;;
16854;SDS011;8543;54.522;18.550;2023-03-14T16:20:28;6.10;;;3.00;;
16854;SDS011;8543;54.522;18.550;2023-03-14T16:22:54;5.20;;;2.40;;
16854;SDS011;8543;54.522;18.550;2023-03-14T16:30:41;6.40;;;2.90;;